Time;durP1;ratioP1;P1;durP2;ratioP2;P2;SDS_P1;SDS_P2;PMS_P1;PMS_P2;Temp;Humidity;BMP_temperature;BMP_pressure;BME280_temperature;BME280_humidity;BME280_pressure;Samples;Min_cycle;Max_cycle;Signal;HPM_P1;HPM_P2
2023/10/19 00:02:00;;;;;;;6.25;2.13;;;15.30;99.90;;;;;;5038782;28;20068;-85
2023/10/19 00:04:32;;;;;;;6.07;1.90;;;15.30;99.90;;;;;;5046419;28;20430;-85
2023/10/19 00:06:59;;;;;;;7.75;2.15;;;15.30;99.90;;;;;;5037734;28;20057;-85
2023/10/19 00:09:31;;;;;;;6.43;2.47;;;15.20;99.90;;;;;;5040287;28;20076;-84
2023/10/19 00:11:58;;;;;;;6.45;2.65;;;15.20;99.90;;;;;;5037290;28;20050;-85
2023/10/19 00:14:25;;;;;;;7.45;2.20;;;15.20;99.90;;;;;;5047451;28;20127;-85
2023/10/19 00:17:00;;;;;;;6.97;2.60;;;15.20;99.90;;;;;;5044950;28;20066;-84
2023/10/19 00:19:31;;;;;;;3.88;2.42;;;15.20;99.90;;;;;;5046184;28;20056;-84
2023/10/19 00:22:07;;;;;;;2.30;1.80;;;15.20;99.90;;;;;;5036599;28;20097;-85
2023/10/19 00:24:35;;;;;;;3.00;2.05;;;15.20;99.90;;;;;;5040293;28;20072;-84
2023/10/19 00:27:16;;;;;;;4.38;2.05;;;15.20;99.90;;;;;;5041271;28;20072;-84
2023/10/19 00:29:49;;;;;;;2.65;1.80;;;15.20;99.90;;;;;;5038559;28;20057;-84
2023/10/19 00:32:17;;;;;;;2.80;1.70;;;15.20;99.90;;;;;;5038807;28;20045;-85
2023/10/19 00:34:51;;;;;;;4.32;1.60;;;15.20;99.90;;;;;;5039550;28;20053;-85
2023/10/19 00:37:26;;;;;;;4.45;1.90;;;15.20;99.90;;;;;;5034168;28;20069;-84
2023/10/19 00:39:55;;;;;;;4.03;1.80;;;15.20;99.90;;;;;;5040978;28;20144;-84
2023/10/19 00:42:30;;;;;;;3.67;2.20;;;15.20;99.90;;;;;;5041861;28;20135;-84
2023/10/19 00:45:05;;;;;;;4.95;2.08;;;15.20;99.90;;;;;;5046424;28;20589;-84
2023/10/19 00:47:39;;;;;;;4.70;2.35;;;15.20;99.90;;;;;;5035425;28;20058;-84
2023/10/19 00:50:21;;;;;;;5.40;1.83;;;15.20;99.90;;;;;;5033525;28;20057;-85
2023/10/19 00:52:51;;;;;;;5.47;2.05;;;15.20;99.90;;;;;;5032473;28;20045;-84
2023/10/19 00:55:20;;;;;;;4.95;1.95;;;15.20;99.90;;;;;;5040872;28;20105;-84
2023/10/19 00:57:49;;;;;;;3.72;1.65;;;15.20;99.90;;;;;;5045535;28;20492;-85
2023/10/19 01:00:30;;;;;;;6.13;1.80;;;15.20;99.90;;;;;;5036070;28;20394;-85
2023/10/19 01:03:04;;;;;;;3.78;1.60;;;15.20;99.90;;;;;;5044156;28;20042;-84
2023/10/19 01:05:35;;;;;;;5.55;1.90;;;15.20;99.90;;;;;;5034393;28;20054;-84
2023/10/19 01:08:19;;;;;;;3.08;1.52;;;15.20;99.90;;;;;;5036855;28;20060;-83
2023/10/19 01:10:51;;;;;;;2.67;1.70;;;15.20;99.90;;;;;;5036611;28;20042;-83
2023/10/19 01:13:26;;;;;;;3.60;1.80;;;15.20;99.90;;;;;;5038714;28;20042;-84
2023/10/19 01:15:54;;;;;;;4.28;1.88;;;15.20;99.90;;;;;;5038447;28;20049;-83
2023/10/19 01:18:22;;;;;;;4.53;1.95;;;15.20;99.90;;;;;;5038907;28;20053;-85
2023/10/19 01:20:52;;;;;;;5.30;2.58;;;15.20;99.90;;;;;;5034480;28;20042;-85
2023/10/19 01:28:25;;;;;;;5.25;2.47;;;15.20;99.90;;;;;;5040062;28;20414;-85
2023/10/19 01:30:52;;;;;;;5.00;2.10;;;15.20;99.90;;;;;;5033806;28;20061;-85
2023/10/19 01:33:20;;;;;;;6.35;2.38;;;15.20;99.90;;;;;;5037536;28;20128;-84
2023/10/19 01:38:33;;;;;;;3.90;1.90;;;15.20;99.90;;;;;;5041269;28;20049;-84
2023/10/19 01:41:02;;;;;;;3.38;2.17;;;15.10;99.90;;;;;;5033667;28;20054;-85
2023/10/19 01:43:32;;;;;;;6.80;2.28;;;15.10;99.90;;;;;;5035575;28;20050;-85
2023/10/19 01:46:11;;;;;;;3.55;1.92;;;15.00;99.90;;;;;;5028172;28;20194;-84
2023/10/19 01:48:42;;;;;;;3.78;2.08;;;15.00;99.90;;;;;;5034280;28;20104;-84
2023/10/19 01:51:10;;;;;;;5.43;2.30;;;15.00;99.90;;;;;;5031355;28;20133;-84
2023/10/19 01:53:44;;;;;;;3.40;1.85;;;14.90;99.90;;;;;;5040255;28;20053;-84
2023/10/19 01:56:15;;;;;;;5.30;2.17;;;14.90;99.90;;;;;;5035154;28;20108;-84
2023/10/19 01:58:46;;;;;;;3.45;2.28;;;14.80;99.90;;;;;;5035539;28;20055;-85
2023/10/19 02:01:20;;;;;;;6.35;2.08;;;14.80;99.90;;;;;;5025339;28;20076;-84
2023/10/19 02:03:57;;;;;;;3.63;2.00;;;14.70;99.90;;;;;;5032156;28;20045;-84
2023/10/19 02:06:36;;;;;;;5.50;2.17;;;14.70;99.90;;;;;;5032857;28;20422;-84
2023/10/19 02:11:58;;;;;;;3.58;1.90;;;14.60;99.90;;;;;;5035152;28;20424;-84
2023/10/19 02:14:30;;;;;;;2.10;1.83;;;14.60;99.90;;;;;;5029555;28;20058;-83
2023/10/19 02:17:00;;;;;;;5.05;2.35;;;14.50;99.90;;;;;;5035489;28;20049;-84
2023/10/19 02:19:28;;;;;;;4.18;1.77;;;14.50;99.90;;;;;;5031072;28;20103;-83
2023/10/19 02:21:58;;;;;;;6.63;2.15;;;14.40;99.90;;;;;;5038833;28;20040;-85
2023/10/19 02:24:26;;;;;;;2.20;1.50;;;14.40;99.90;;;;;;5036462;28;20117;-84
2023/10/19 02:26:55;;;;;;;2.13;1.73;;;14.40;99.90;;;;;;5036941;28;20567;-83
2023/10/19 02:29:23;;;;;;;4.00;1.80;;;14.40;99.90;;;;;;5031655;28;20050;-84
2023/10/19 02:31:49;;;;;;;3.55;2.05;;;14.40;99.90;;;;;;5041101;28;20045;-83
2023/10/19 02:34:16;;;;;;;3.63;1.90;;;14.30;99.90;;;;;;5038616;28;20079;-84
2023/10/19 02:36:44;;;;;;;7.53;2.47;;;14.30;99.90;;;;;;5042965;28;20045;-84
2023/10/19 02:39:14;;;;;;;2.60;1.60;;;14.30;99.90;;;;;;5037087;28;20046;-85
2023/10/19 02:41:42;;;;;;;4.20;1.70;;;14.30;99.90;;;;;;5037359;28;20046;-84
2023/10/19 02:46:48;;;;;;;5.65;2.47;;;14.30;99.90;;;;;;5033704;28;20076;-84
2023/10/19 02:49:22;;;;;;;3.55;1.88;;;14.30;99.90;;;;;;5037804;28;20119;-84
2023/10/19 02:51:51;;;;;;;5.75;2.28;;;14.30;99.90;;;;;;5039016;28;20059;-84
2023/10/19 02:54:24;;;;;;;4.68;2.10;;;14.40;99.90;;;;;;5031285;28;20050;-83
2023/10/19 02:56:58;;;;;;;4.28;1.88;;;14.40;99.90;;;;;;5042298;28;20041;-85
2023/10/19 02:59:28;;;;;;;5.07;3.38;;;14.40;99.90;;;;;;5028590;28;20513;-84
2023/10/19 03:04:39;;;;;;;5.32;4.45;;;14.40;99.90;;;;;;5036412;28;20045;-84
2023/10/19 03:07:13;;;;;;;7.60;5.10;;;14.30;99.90;;;;;;5037864;28;20058;-84
2023/10/19 03:09:48;;;;;;;7.88;4.75;;;14.30;99.90;;;;;;5034037;28;20057;-83
2023/10/19 03:12:15;;;;;;;9.23;6.75;;;14.30;99.90;;;;;;5034115;28;20406;-85
2023/10/19 03:14:42;;;;;;;8.02;6.15;;;14.20;99.90;;;;;;5026934;28;20096;-84
2023/10/19 03:17:10;;;;;;;9.70;6.88;;;14.20;99.90;;;;;;5035654;28;20041;-84
2023/10/19 03:19:36;;;;;;;7.75;5.88;;;14.20;99.90;;;;;;5040788;28;20054;-84
2023/10/19 03:22:05;;;;;;;8.88;5.88;;;14.10;99.90;;;;;;5038607;28;20041;-85
2023/10/19 03:24:36;;;;;;;7.75;5.78;;;14.10;99.90;;;;;;5029339;28;20128;-84
2023/10/19 03:27:23;;;;;;;7.00;5.30;;;14.10;99.90;;;;;;5033044;28;20113;-84
2023/10/19 03:29:55;;;;;;;9.75;6.43;;;14.10;99.90;;;;;;5028087;28;20050;-84
2023/10/19 03:32:26;;;;;;;7.30;4.65;;;14.00;99.90;;;;;;5036502;28;20597;-83
2023/10/19 03:34:55;;;;;;;8.20;5.45;;;14.00;99.90;;;;;;5036163;28;20045;-83
2023/10/19 03:37:25;;;;;;;7.03;4.85;;;14.00;99.90;;;;;;5040182;28;20076;-84
2023/10/19 03:39:55;;;;;;;6.93;4.78;;;14.00;99.90;;;;;;5030799;28;20048;-85
2023/10/19 03:42:26;;;;;;;7.60;5.60;;;13.90;99.90;;;;;;5033418;28;20465;-84
2023/10/19 03:44:53;;;;;;;8.38;5.10;;;13.90;99.90;;;;;;5031609;28;20055;-83
2023/10/19 03:47:25;;;;;;;12.20;6.30;;;13.90;99.90;;;;;;5037790;28;20050;-84
2023/10/19 03:49:53;;;;;;;11.18;5.20;;;13.90;99.90;;;;;;5035946;28;20049;-84
2023/10/19 03:52:20;;;;;;;7.68;5.90;;;13.80;99.90;;;;;;5035777;28;20057;-84
2023/10/19 03:54:48;;;;;;;8.85;6.00;;;13.80;99.90;;;;;;5031254;28;20050;-84
2023/10/19 03:57:20;;;;;;;10.93;6.20;;;13.80;99.90;;;;;;5034982;28;20052;-84
2023/10/19 03:59:52;;;;;;;10.13;6.80;;;13.80;99.90;;;;;;5028172;28;20074;-84
2023/10/19 04:02:23;;;;;;;9.15;5.53;;;13.80;99.90;;;;;;5037437;28;20046;-84
2023/10/19 04:04:52;;;;;;;9.82;6.15;;;13.80;99.90;;;;;;5039800;28;20464;-84
2023/10/19 04:07:25;;;;;;;8.43;6.00;;;13.80;99.90;;;;;;5036547;28;20076;-84
2023/10/19 04:09:58;;;;;;;6.32;5.20;;;13.80;99.90;;;;;;5037976;28;20077;-84
2023/10/19 04:12:31;;;;;;;7.60;4.35;;;13.80;99.90;;;;;;5038790;28;20045;-85
2023/10/19 04:15:17;;;;;;;7.32;5.25;;;13.80;99.90;;;;;;5043879;28;20041;-85
2023/10/19 04:17:48;;;;;;;4.80;3.58;;;13.80;99.90;;;;;;5043035;28;20046;-85
2023/10/19 04:22:49;;;;;;;6.10;3.03;;;13.80;99.90;;;;;;5037130;28;20077;-84
2023/10/19 04:25:25;;;;;;;5.95;2.30;;;13.80;99.90;;;;;;5031863;28;20053;-84
2023/10/19 04:27:52;;;;;;;4.25;1.77;;;13.90;99.90;;;;;;5038042;28;20057;-84
2023/10/19 04:30:22;;;;;;;1.67;1.00;;;13.90;99.90;;;;;;5043045;28;20045;-84
2023/10/19 04:32:50;;;;;;;3.30;1.00;;;14.00;99.90;;;;;;5043497;28;20136;-84
2023/10/19 04:35:24;;;;;;;5.22;2.00;;;14.00;99.90;;;;;;5036499;28;20069;-84
2023/10/19 04:37:52;;;;;;;1.00;0.80;;;14.10;99.90;;;;;;5033747;28;20553;-85
2023/10/19 04:40:23;;;;;;;1.85;0.80;;;14.20;99.90;;;;;;5031601;28;20046;-84
2023/10/19 04:42:51;;;;;;;1.50;0.95;;;14.30;99.90;;;;;;5039371;28;20049;-84
2023/10/19 04:45:19;;;;;;;1.55;0.73;;;14.40;99.90;;;;;;5043232;28;20462;-84
2023/10/19 04:47:49;;;;;;;1.13;0.88;;;14.50;99.90;;;;;;5037003;28;20057;-84
2023/10/19 04:50:16;;;;;;;;;;;14.60;99.90;;;;;;5036824;28;20553;-85
2023/10/19 04:52:42;;;;;;;1.42;0.73;;;14.70;99.90;;;;;;5034103;28;20424;-85
2023/10/19 04:55:09;;;;;;;1.38;0.80;;;14.80;99.90;;;;;;5035160;28;20517;-84
2023/10/19 04:57:36;;;;;;;3.25;1.15;;;14.80;99.90;;;;;;5039623;28;20052;-85
2023/10/19 05:00:03;;;;;;;0.90;0.70;;;14.90;99.90;;;;;;5041841;28;20096;-85
2023/10/19 05:02:30;;;;;;;2.83;0.80;;;14.90;99.90;;;;;;5037947;28;20510;-84
2023/10/19 05:04:57;;;;;;;3.55;1.27;;;15.00;99.90;;;;;;5042952;28;20473;-84
2023/10/19 05:07:23;;;;;;;1.65;1.02;;;15.10;99.90;;;;;;5033857;28;20104;-84
2023/10/19 05:09:50;;;;;;;4.38;0.80;;;15.10;99.90;;;;;;5030148;28;20049;-85
2023/10/19 05:12:18;;;;;;;2.40;0.60;;;15.10;99.90;;;;;;5041503;28;20065;-84
2023/10/19 05:14:45;;;;;;;0.63;0.50;;;15.10;99.90;;;;;;5044144;28;20080;-84
2023/10/19 05:17:13;;;;;;;1.95;0.70;;;15.10;99.90;;;;;;5038256;28;20046;-85
2023/10/19 05:19:40;;;;;;;0.80;0.60;;;15.10;99.90;;;;;;5040417;28;20113;-84
2023/10/19 05:22:09;;;;;;;1.10;0.47;;;15.10;99.90;;;;;;5043064;28;20045;-84
2023/10/19 05:24:36;;;;;;;1.42;0.60;;;15.10;99.90;;;;;;5036077;28;20501;-84
2023/10/19 05:27:03;;;;;;;0.88;0.52;;;15.10;99.90;;;;;;5041574;28;20052;-84
2023/10/19 05:29:33;;;;;;;0.47;0.47;;;15.10;99.90;;;;;;5038157;28;20046;-83
2023/10/19 05:32:00;;;;;;;1.05;0.52;;;15.10;99.90;;;;;;5038499;28;20045;-84
2023/10/19 05:34:29;;;;;;;0.45;0.45;;;15.10;99.90;;;;;;5036491;28;20042;-84
2023/10/19 05:36:58;;;;;;;1.27;0.55;;;15.10;99.90;;;;;;5035380;28;20159;-84
2023/10/19 05:39:27;;;;;;;1.15;0.60;;;15.10;99.90;;;;;;5038488;28;20046;-85
2023/10/19 05:41:55;;;;;;;2.20;0.70;;;15.10;99.90;;;;;;5042035;28;20084;-84
2023/10/19 05:44:24;;;;;;;1.23;0.80;;;15.10;99.90;;;;;;5040123;28;20656;-84
2023/10/19 05:46:52;;;;;;;0.52;0.50;;;15.10;99.90;;;;;;5038758;28;20053;-85
2023/10/19 05:49:19;;;;;;;1.30;0.43;;;15.10;99.90;;;;;;5033241;28;20073;-85
2023/10/19 05:51:46;;;;;;;2.22;1.25;;;15.10;99.90;;;;;;5031431;28;20057;-84
2023/10/19 05:54:13;;;;;;;1.90;0.60;;;15.10;99.90;;;;;;5037172;28;20051;-85
2023/10/19 05:56:40;;;;;;;0.57;0.40;;;15.10;99.90;;;;;;5041300;28;20042;-84
2023/10/19 05:59:07;;;;;;;1.10;0.70;;;15.10;99.90;;;;;;5043068;28;20069;-84
2023/10/19 06:01:34;;;;;;;0.50;0.50;;;15.10;99.90;;;;;;5034088;28;20065;-84
2023/10/19 06:04:01;;;;;;;1.15;0.80;;;15.10;99.90;;;;;;5032801;28;20489;-84
2023/10/19 06:06:27;;;;;;;1.17;0.70;;;15.20;99.90;;;;;;5035879;28;20060;-85
2023/10/19 06:08:54;;;;;;;1.95;0.70;;;15.20;99.90;;;;;;5044208;28;20050;-84
2023/10/19 06:11:22;;;;;;;1.58;0.55;;;15.20;99.90;;;;;;5036218;28;20046;-85
2023/10/19 06:13:49;;;;;;;1.30;0.70;;;15.30;99.90;;;;;;5034751;28;20050;-84
2023/10/19 06:16:15;;;;;;;0.95;0.50;;;15.30;99.90;;;;;;5031446;28;20120;-84
2023/10/19 06:18:43;;;;;;;1.83;0.65;;;15.40;99.90;;;;;;5028785;28;20048;-85
2023/10/19 06:21:12;;;;;;;0.60;0.40;;;15.40;99.90;;;;;;5034572;28;20049;-84
2023/10/19 06:23:39;;;;;;;0.43;0.40;;;15.40;99.90;;;;;;5039824;28;20073;-84
2023/10/19 06:26:12;;;;;;;0.57;0.38;;;15.50;99.90;;;;;;5030877;28;20063;-84
2023/10/19 06:28:40;;;;;;;0.20;0.20;;;15.50;99.90;;;;;;5033970;28;20115;-84
2023/10/19 06:31:08;;;;;;;0.63;0.40;;;15.60;99.90;;;;;;5028843;28;20055;-85
2023/10/19 06:33:41;;;;;;;0.50;0.30;;;15.60;99.90;;;;;;5029633;28;20049;-85
2023/10/19 06:36:08;;;;;;;0.30;0.30;;;15.60;99.90;;;;;;5031598;28;20072;-85
2023/10/19 06:38:36;;;;;;;0.30;0.30;;;15.70;99.90;;;;;;5036478;28;20057;-84
2023/10/19 06:41:13;;;;;;;0.50;0.50;;;15.70;99.90;;;;;;5036874;28;20036;-84
2023/10/19 06:43:40;;;;;;;0.30;0.30;;;15.70;99.90;;;;;;5034822;28;20490;-84
2023/10/19 06:46:11;;;;;;;1.23;0.40;;;15.80;99.90;;;;;;5028451;28;20045;-85
2023/10/19 06:48:39;;;;;;;0.80;0.30;;;15.80;99.90;;;;;;5029437;28;20045;-84
2023/10/19 06:51:06;;;;;;;2.30;0.30;;;15.80;99.90;;;;;;5032736;28;20081;-84
2023/10/19 06:53:34;;;;;;;2.40;0.60;;;15.80;99.90;;;;;;5034296;28;20050;-84
2023/10/19 06:56:01;;;;;;;1.48;0.73;;;15.90;99.90;;;;;;5035016;28;20106;-84
2023/10/19 06:58:28;;;;;;;0.95;0.50;;;15.90;99.90;;;;;;5030369;28;20050;-85
2023/10/19 07:01:05;;;;;;;1.00;0.43;;;15.90;99.90;;;;;;5030719;28;20160;-84
2023/10/19 07:03:32;;;;;;;0.68;0.40;;;16.00;99.90;;;;;;5033348;28;20085;-85
2023/10/19 07:05:59;;;;;;;0.45;0.30;;;16.00;99.90;;;;;;5038588;28;20081;-85
2023/10/19 07:08:27;;;;;;;0.50;0.35;;;16.00;99.90;;;;;;5037570;28;20057;-84
2023/10/19 07:10:54;;;;;;;7.10;1.35;;;16.00;99.90;;;;;;5034583;28;20057;-85
2023/10/19 07:13:21;;;;;;;6.60;1.95;;;16.10;99.90;;;;;;5029887;28;20093;-85
2023/10/19 07:15:54;;;;;;;1.95;1.30;;;16.10;99.90;;;;;;5031723;28;20054;-84
2023/10/19 07:18:21;;;;;;;2.20;1.13;;;16.10;99.90;;;;;;5028076;28;20073;-85
2023/10/19 07:20:49;;;;;;;1.67;0.85;;;16.10;99.90;;;;;;5039398;28;20080;-84
2023/10/19 07:23:22;;;;;;;2.95;1.48;;;16.10;99.90;;;;;;5037345;28;20070;-84
2023/10/19 07:25:59;;;;;;;1.20;0.93;;;16.10;99.90;;;;;;5035765;28;20476;-85
2023/10/19 07:28:27;;;;;;;7.25;3.00;;;16.20;99.90;;;;;;5029431;28;20046;-85
2023/10/19 07:30:55;;;;;;;11.52;4.93;;;16.20;99.90;;;;;;5029898;28;20077;-84
2023/10/19 07:33:23;;;;;;;7.78;4.38;;;16.20;99.90;;;;;;5026972;28;20186;-85
2023/10/19 07:35:59;;;;;;;12.32;4.65;;;16.20;99.90;;;;;;5039172;28;20057;-84
2023/10/19 07:38:28;;;;;;;5.20;3.45;;;16.10;99.90;;;;;;5040636;28;20084;-85
2023/10/19 07:40:55;;;;;;;5.57;3.42;;;16.10;99.90;;;;;;5036541;28;20065;-85
2023/10/19 07:43:22;;;;;;;1.60;1.10;;;16.00;99.90;;;;;;5033714;28;20045;-84
2023/10/19 07:45:49;;;;;;;1.35;0.90;;;16.00;99.90;;;;;;5033708;28;20050;-84
2023/10/19 07:48:16;;;;;;;2.75;0.70;;;16.00;99.90;;;;;;5038264;28;20059;-84
2023/10/19 07:50:44;;;;;;;0.85;0.70;;;16.00;99.90;;;;;;5036808;28;20060;-84
2023/10/19 07:53:11;;;;;;;3.03;0.70;;;16.00;99.90;;;;;;5044436;28;20114;-84
2023/10/19 07:55:39;;;;;;;1.38;0.95;;;16.00;99.90;;;;;;5034646;28;20085;-84
2023/10/19 07:58:06;;;;;;;2.30;0.90;;;16.00;99.90;;;;;;5038186;28;20437;-84
2023/10/19 08:00:36;;;;;;;3.22;0.63;;;16.10;99.90;;;;;;5031806;28;20054;-85
2023/10/19 08:03:07;;;;;;;0.50;0.50;;;16.10;99.90;;;;;;5037971;28;20092;-85
2023/10/19 08:05:35;;;;;;;1.00;0.70;;;16.10;99.90;;;;;;5037280;28;20348;-85
2023/10/19 08:08:04;;;;;;;1.23;0.68;;;16.10;99.90;;;;;;5039924;28;20110;-84
2023/10/19 08:10:34;;;;;;;2.67;0.82;;;16.10;99.90;;;;;;5048479;28;20447;-84
2023/10/19 08:13:01;;;;;;;1.17;0.80;;;16.00;99.90;;;;;;5039578;28;20690;-84
2023/10/19 08:15:30;;;;;;;1.38;0.90;;;16.00;99.90;;;;;;5032047;28;20049;-85
2023/10/19 08:17:57;;;;;;;3.75;0.88;;;16.10;99.90;;;;;;5045705;28;20052;-84
2023/10/19 08:20:24;;;;;;;0.70;0.70;;;16.00;99.90;;;;;;5043802;28;20056;-85
2023/10/19 08:22:54;;;;;;;0.98;0.65;;;16.00;99.90;;;;;;5036915;28;20050;-84
2023/10/19 08:25:21;;;;;;;2.53;0.90;;;16.10;99.90;;;;;;5041682;28;20100;-84
2023/10/19 08:27:56;;;;;;;3.03;1.25;;;16.10;99.90;;;;;;5031667;28;20092;-84
2023/10/19 08:30:23;;;;;;;1.02;0.68;;;16.10;99.90;;;;;;5034767;28;20046;-84
2023/10/19 08:32:54;;;;;;;0.60;0.52;;;16.10;99.90;;;;;;5039822;28;20050;-85
2023/10/19 08:35:24;;;;;;;1.15;0.80;;;16.10;99.90;;;;;;5039788;28;20041;-85
2023/10/19 08:38:00;;;;;;;0.98;0.70;;;16.20;99.90;;;;;;5035501;28;20405;-85
2023/10/19 08:40:27;;;;;;;1.23;0.80;;;16.20;99.90;;;;;;5041278;28;20483;-84
2023/10/19 08:42:55;;;;;;;2.00;0.50;;;16.30;99.90;;;;;;5030317;28;20584;-85
2023/10/19 08:45:22;;;;;;;0.90;0.70;;;16.30;99.90;;;;;;5040116;28;20038;-84
2023/10/19 08:47:59;;;;;;;1.55;0.80;;;16.30;99.90;;;;;;5039835;28;20092;-84
2023/10/19 08:50:33;;;;;;;4.50;1.65;;;16.40;99.90;;;;;;5040884;28;20041;-84
2023/10/19 08:53:03;;;;;;;2.15;1.40;;;16.40;99.90;;;;;;5037757;28;20045;-84
2023/10/19 08:55:30;;;;;;;3.50;1.27;;;16.40;99.90;;;;;;5034720;28;20505;-84
2023/10/19 08:58:15;;;;;;;1.40;1.00;;;16.50;99.90;;;;;;5040974;28;20049;-85
2023/10/19 09:00:54;;;;;;;5.32;1.88;;;16.50;99.90;;;;;;5041782;28;20137;-85
2023/10/19 09:03:24;;;;;;;3.15;1.20;;;16.40;99.90;;;;;;5042093;28;20101;-84
2023/10/19 09:05:52;;;;;;;1.50;1.17;;;16.40;99.90;;;;;;5033940;28;20045;-84
2023/10/19 09:08:20;;;;;;;3.58;1.50;;;16.40;99.90;;;;;;5040243;28;20110;-85
2023/10/19 09:10:49;;;;;;;5.18;1.50;;;16.40;99.90;;;;;;5031975;28;20057;-85
2023/10/19 09:13:18;;;;;;;2.60;1.30;;;16.40;99.90;;;;;;5045444;28;20045;-84
2023/10/19 09:15:45;;;;;;;2.20;0.75;;;16.40;99.90;;;;;;5038475;28;20728;-84
2023/10/19 09:18:17;;;;;;;2.40;0.80;;;16.30;99.90;;;;;;5041565;28;20080;-84
2023/10/19 09:20:53;;;;;;;4.15;0.88;;;16.30;99.90;;;;;;5033897;28;20042;-84
2023/10/19 09:23:25;;;;;;;1.65;0.50;;;16.30;99.90;;;;;;5036779;28;20073;-84
2023/10/19 09:25:53;;;;;;;1.10;0.77;;;16.30;99.90;;;;;;5028948;28;20057;-83
2023/10/19 09:28:21;;;;;;;3.30;1.20;;;16.30;99.90;;;;;;5041718;28;20048;-84
2023/10/19 09:30:49;;;;;;;2.38;0.90;;;16.30;99.90;;;;;;5039650;28;20531;-85
2023/10/19 09:33:21;;;;;;;1.80;0.80;;;16.30;99.90;;;;;;5041335;28;20044;-84
2023/10/19 09:35:52;;;;;;;1.80;0.88;;;16.40;99.90;;;;;;5034675;28;20053;-84
2023/10/19 09:38:22;;;;;;;1.25;0.90;;;16.40;99.90;;;;;;5045050;28;20512;-84
2023/10/19 09:40:50;;;;;;;1.70;0.70;;;16.40;99.90;;;;;;5029435;28;20077;-85
2023/10/19 09:43:38;;;;;;;1.42;0.68;;;16.50;99.90;;;;;;5044355;28;20501;-84
2023/10/19 09:46:13;;;;;;;3.67;2.25;;;16.60;99.90;;;;;;5037358;28;20113;-84
2023/10/19 09:48:51;;;;;;;2.88;1.00;;;16.50;99.90;;;;;;5041356;28;20465;-84
2023/10/19 09:51:20;;;;;;;1.10;0.90;;;16.60;99.90;;;;;;5035822;28;20045;-84
2023/10/19 09:53:53;;;;;;;1.23;0.50;;;16.60;99.90;;;;;;5035639;28;20054;-84
2023/10/19 09:56:25;;;;;;;0.80;0.40;;;16.70;99.90;;;;;;5040278;28;20045;-85
2023/10/19 09:58:57;;;;;;;1.10;0.50;;;16.70;99.90;;;;;;5056802;28;20056;-85
2023/10/19 10:01:26;;;;;;;0.82;0.40;;;16.70;99.90;;;;;;5038891;28;20127;-84
2023/10/19 10:03:53;;;;;;;0.60;0.40;;;16.70;99.90;;;;;;5033298;28;20095;-85
2023/10/19 10:06:50;;;;;;;1.70;0.47;;;16.70;99.90;;;;;;5039964;28;20098;-85
2023/10/19 10:09:23;;;;;;;0.70;0.40;;;16.80;99.90;;;;;;5038848;28;20053;-85
2023/10/19 10:11:55;;;;;;;1.00;0.60;;;16.70;99.90;;;;;;5035060;28;20053;-85
2023/10/19 10:14:24;;;;;;;1.25;0.68;;;16.70;99.90;;;;;;5041252;28;20134;-84
2023/10/19 10:17:05;;;;;;;1.30;0.40;;;16.80;99.90;;;;;;5037953;28;20457;-84
2023/10/19 10:19:32;;;;;;;1.17;0.40;;;16.80;99.90;;;;;;5032394;28;20328;-84
2023/10/19 10:22:14;;;;;;;0.60;0.60;;;16.80;99.90;;;;;;5029803;28;20128;-85
2023/10/19 10:24:42;;;;;;;1.60;0.88;;;16.90;99.90;;;;;;5035962;28;20072;-85
2023/10/19 10:27:09;;;;;;;0.43;0.40;;;17.00;99.90;;;;;;5042801;28;20052;-85
2023/10/19 10:29:36;;;;;;;1.45;0.40;;;17.10;99.90;;;;;;5036662;28;20064;-83
2023/10/19 10:32:05;;;;;;;2.33;1.02;;;17.10;99.90;;;;;;5045289;28;20080;-85
2023/10/19 10:34:38;;;;;;;1.15;0.90;;;17.20;99.90;;;;;;5029204;28;20108;-84
2023/10/19 10:37:10;;;;;;;3.20;1.00;;;17.30;99.90;;;;;;5042341;28;20045;-85
2023/10/19 10:39:40;;;;;;;1.70;1.10;;;17.30;99.90;;;;;;5032529;28;20053;-84
2023/10/19 10:42:08;;;;;;;3.22;2.08;;;17.40;99.90;;;;;;5038115;28;20097;-84
2023/10/19 10:44:42;;;;;;;2.47;1.70;;;17.40;99.90;;;;;;5033640;28;20042;-85
2023/10/19 10:47:18;;;;;;;3.25;1.65;;;17.40;99.90;;;;;;5043967;28;20073;-85
2023/10/19 10:49:48;;;;;;;2.58;1.50;;;17.40;99.90;;;;;;5027553;28;20130;-84
2023/10/19 10:52:25;;;;;;;1.38;0.85;;;17.40;99.90;;;;;;5035919;28;20081;-84
2023/10/19 10:54:52;;;;;;;3.22;0.70;;;17.40;99.90;;;;;;5033701;28;20054;-84
2023/10/19 10:57:20;;;;;;;1.90;0.50;;;17.50;99.90;;;;;;5039664;28;20076;-85
2023/10/19 10:59:46;;;;;;;1.35;0.50;;;17.50;99.90;;;;;;5030476;28;20046;-84
2023/10/19 11:02:18;;;;;;;1.40;0.77;;;17.50;99.90;;;;;;5040573;28;20105;-85
2023/10/19 11:04:46;;;;;;;0.65;0.50;;;17.50;99.90;;;;;;5024664;28;20042;-84
2023/10/19 11:07:20;;;;;;;1.75;0.40;;;17.50;99.90;;;;;;5033390;28;20468;-85
2023/10/19 11:09:47;;;;;;;0.40;0.40;;;17.50;99.90;;;;;;5034165;28;20049;-86
2023/10/19 11:12:19;;;;;;;1.90;0.40;;;17.50;99.90;;;;;;5038837;28;20480;-84
2023/10/19 11:14:57;;;;;;;0.70;0.32;;;17.50;99.90;;;;;;5036745;28;20077;-84
2023/10/19 11:17:30;;;;;;;1.73;0.50;;;17.50;99.90;;;;;;5036310;28;20056;-84
2023/10/19 11:19:58;;;;;;;2.10;0.40;;;17.50;99.90;;;;;;5030958;28;20049;-84
2023/10/19 11:22:28;;;;;;;1.80;0.60;;;17.50;99.90;;;;;;5040080;28;20048;-84
2023/10/19 11:24:56;;;;;;;2.63;0.52;;;17.50;99.90;;;;;;5039452;28;20046;-85
2023/10/19 11:27:27;;;;;;;0.20;0.20;;;17.50;99.90;;;;;;5038043;28;20052;-85
2023/10/19 11:29:56;;;;;;;0.50;0.45;;;17.50;99.90;;;;;;5030493;28;20083;-84
2023/10/19 11:32:25;;;;;;;0.93;0.47;;;17.50;99.90;;;;;;5034590;28;20058;-84
2023/10/19 11:34:54;;;;;;;0.60;0.57;;;17.40;99.90;;;;;;5029086;28;20128;-85
2023/10/19 11:37:21;;;;;;;1.38;0.50;;;17.40;99.90;;;;;;5041873;28;20056;-85
2023/10/19 11:39:49;;;;;;;0.90;0.50;;;17.40;99.90;;;;;;5034416;28;20134;-84
2023/10/19 11:42:20;;;;;;;1.27;0.45;;;17.40;99.90;;;;;;5039555;28;20054;-84
2023/10/19 11:44:47;;;;;;;2.03;0.40;;;17.40;99.90;;;;;;5037938;28;20129;-84
2023/10/19 11:47:14;;;;;;;0.60;0.32;;;17.30;99.90;;;;;;5043033;28;20414;-84
2023/10/19 11:49:41;;;;;;;0.70;0.50;;;17.30;99.90;;;;;;5029556;28;20055;-85
2023/10/19 11:52:08;;;;;;;0.70;0.50;;;17.30;99.90;;;;;;5044899;28;20421;-84
2023/10/19 11:54:34;;;;;;;3.35;0.50;;;17.30;99.90;;;;;;5046180;28;20524;-84
2023/10/19 11:57:05;;;;;;;1.30;0.52;;;17.30;99.90;;;;;;5035520;28;20096;-84
2023/10/19 11:59:32;;;;;;;0.98;0.65;;;17.30;99.90;;;;;;5036320;28;20143;-84
2023/10/19 12:02:00;;;;;;;2.42;0.70;;;17.30;99.90;;;;;;5034123;28;20088;-84
2023/10/19 12:04:27;;;;;;;1.33;0.80;;;17.30;99.90;;;;;;5028156;28;20120;-85
2023/10/19 12:06:55;;;;;;;1.05;0.65;;;17.30;99.90;;;;;;5042162;28;20056;-84
2023/10/19 12:09:24;;;;;;;1.80;0.55;;;17.20;99.90;;;;;;5040995;28;20050;-85
2023/10/19 12:11:53;;;;;;;1.43;0.70;;;17.20;99.90;;;;;;5035096;28;20045;-85
2023/10/19 12:14:21;;;;;;;1.40;0.50;;;17.30;99.90;;;;;;5034058;28;20414;-85
2023/10/19 12:16:47;;;;;;;1.33;0.60;;;17.30;99.90;;;;;;5037348;28;20050;-84
2023/10/19 12:19:16;;;;;;;3.65;0.55;;;17.30;99.90;;;;;;5028485;28;20081;-84
2023/10/19 12:21:43;;;;;;;1.02;0.43;;;17.30;99.90;;;;;;5043480;28;20041;-85
2023/10/19 12:24:09;;;;;;;2.63;0.60;;;17.30;99.90;;;;;;5036290;28;20045;-85
2023/10/19 12:26:36;;;;;;;0.98;0.47;;;17.20;99.90;;;;;;5035939;28;20049;-85
2023/10/19 12:29:06;;;;;;;0.93;0.43;;;17.30;99.90;;;;;;5032575;28;20052;-84
2023/10/19 12:31:33;;;;;;;2.88;0.50;;;17.20;99.90;;;;;;5036439;28;20084;-85
2023/10/19 12:34:01;;;;;;;1.42;0.60;;;17.20;99.90;;;;;;5035815;28;20050;-85
2023/10/19 12:38:55;;;;;;;1.92;0.85;;;17.10;99.90;;;;;;5040612;28;20054;-85
2023/10/19 12:41:23;;;;;;;3.25;0.90;;;17.10;99.90;;;;;;5055402;28;20405;-84
2023/10/19 12:43:57;;;;;;;0.90;0.70;;;17.10;99.90;;;;;;5030005;28;20386;-85
2023/10/19 12:46:24;;;;;;;0.93;0.70;;;17.10;99.90;;;;;;5042063;28;20144;-85
2023/10/19 12:48:52;;;;;;;0.88;0.55;;;17.10;99.90;;;;;;5034620;28;20060;-84
2023/10/19 12:51:23;;;;;;;1.10;0.70;;;17.10;99.90;;;;;;5040818;28;20108;-84
2023/10/19 12:53:54;;;;;;;1.05;0.75;;;17.10;99.90;;;;;;5037463;28;20504;-84
2023/10/19 12:56:24;;;;;;;1.73;0.90;;;17.10;99.90;;;;;;5045512;28;20041;-85
2023/10/19 12:58:51;;;;;;;0.80;0.70;;;17.10;99.90;;;;;;5027534;28;20604;-83
2023/10/19 13:01:19;;;;;;;3.60;0.70;;;17.10;99.90;;;;;;5033501;28;20042;-84
2023/10/19 13:03:47;;;;;;;2.45;0.65;;;17.10;99.90;;;;;;5037426;28;20045;-85
2023/10/19 13:06:14;;;;;;;1.52;0.60;;;17.10;99.90;;;;;;5038694;28;20060;-84
2023/10/19 13:08:41;;;;;;;1.40;0.47;;;17.10;99.90;;;;;;5038517;28;20558;-84
2023/10/19 13:11:10;;;;;;;2.17;0.50;;;17.10;99.90;;;;;;5031547;28;20045;-84
2023/10/19 13:13:44;;;;;;;2.78;0.77;;;17.10;99.90;;;;;;5027558;28;20092;-84
2023/10/19 13:16:11;;;;;;;1.20;0.80;;;17.10;99.90;;;;;;5028778;28;20045;-84
2023/10/19 13:18:40;;;;;;;1.38;1.00;;;17.10;99.90;;;;;;5044862;28;20080;-84
2023/10/19 13:21:11;;;;;;;0.70;0.55;;;17.10;99.90;;;;;;5038726;28;20042;-84
2023/10/19 13:23:38;;;;;;;3.63;0.70;;;17.20;99.90;;;;;;5041129;28;20048;-85